Airport View

Enter AWOS ICAO identifier for current METAR.

ex. KFNL

KRZL 040505Z AUTO 00000KT 10SM OVC070 15/15 A3002 RMK AO2

4 Aug 2020 05:10

Frequency: 119.175

Phone: 219-866-7167

Other Area AWOS: KMCX - KIKK - KVPZ - KOXI

TAF KLAF 032320Z 0400/0424 35008KT P6SM FEW070 SCT110 FM040900 35006KT P6SM BKN014 FM041400 01009KT P6SM SCT030 FM042200 35010KT P6SM FEW120 AMD LTD TO CLD VIS AND WIND 0401/0413